Time;durP1;ratioP1;P1;durP2;ratioP2;P2;SDS_P1;SDS_P2;PMS_P1;PMS_P2;Temp;Humidity;BMP_temperature;BMP_pressure;BME280_temperature;BME280_humidity;BME280_pressure;Samples;Min_cycle;Max_cycle;Signal;HPM_P1;HPM_P2
2023/01/11 00:01:01;;;;;;;;;;;2.80;83.70;;;;;;5015766;28;19944;-88
2023/01/11 00:03:28;;;;;;;;;;;2.80;84.20;;;;;;5032685;28;19964;-88
2023/01/11 00:05:54;;;;;;;;;;;2.70;84.70;;;;;;5035735;28;19961;-87
2023/01/11 00:08:20;;;;;;;;;;;2.60;84.70;;;;;;5035422;28;19937;-87
2023/01/11 00:10:46;;;;;;;;;;;2.60;85.00;;;;;;5035002;28;20040;-87
2023/01/11 00:13:13;;;;;;;;;;;2.50;84.00;;;;;;5035264;28;19992;-87
2023/01/11 00:15:39;;;;;;;;;;;2.50;82.70;;;;;;5035130;28;20009;-87
2023/01/11 00:18:05;;;;;;;;;;;2.30;80.50;;;;;;5028401;28;19947;-87
2023/01/11 00:20:31;;;;;;;;;;;2.00;79.40;;;;;;5015359;28;20336;-87
2023/01/11 00:22:56;;;;;;;;;;;2.00;78.10;;;;;;5015201;28;19967;-87
2023/01/11 00:25:22;;;;;;;;;;;2.20;76.90;;;;;;5015149;28;19942;-87
2023/01/11 00:27:48;;;;;;;;;;;2.20;74.60;;;;;;5015176;28;20444;-87
2023/01/11 00:30:14;;;;;;;;;;;2.40;72.30;;;;;;5015451;28;19958;-87
2023/01/11 00:32:39;;;;;;;;;;;2.40;71.60;;;;;;5015100;28;19938;-87
2023/01/11 00:35:05;;;;;;;;;;;2.40;70.70;;;;;;5029540;28;19999;-87
2023/01/11 00:37:31;;;;;;;;;;;2.70;69.70;;;;;;5034823;28;19988;-87
2023/01/11 00:39:56;;;;;;;;;;;2.90;70.20;;;;;;5034753;28;19940;-88
2023/01/11 00:47:56;;;;;;;;;;;2.90;71.40;;;;;;5034641;28;20312;-88
2023/01/11 00:50:22;;;;;;;;;;;2.90;71.60;;;;;;5034812;28;20018;-87
2023/01/11 00:52:48;;;;;;;;;;;2.90;71.90;;;;;;5021503;28;19985;-88
2023/01/11 00:55:13;;;;;;;;;;;3.00;71.90;;;;;;5014583;28;20413;-88
2023/01/11 00:57:39;;;;;;;;;;;3.20;71.80;;;;;;5014670;28;19939;-88
2023/01/11 01:00:05;;;;;;;;;;;3.00;72.20;;;;;;5014625;28;19945;-88
2023/01/11 01:02:31;;;;;;;;;;;2.80;73.20;;;;;;5014475;28;19963;-87
2023/01/11 01:04:56;;;;;;;;;;;2.70;72.80;;;;;;5014508;28;20404;-87
2023/01/11 01:07:22;;;;;;;;;;;2.60;73.40;;;;;;5014725;28;20035;-88
2023/01/11 01:09:47;;;;;;;;;;;2.40;74.90;;;;;;5014441;28;19945;-87
2023/01/11 01:14:24;;;;;;;;;;;2.40;74.00;;;;;;5024503;28;20153;-88
2023/01/11 01:14:58;;;;;;;;;;;2.50;74.30;;;;;;5033887;28;19998;-88
2023/01/11 01:17:24;;;;;;;;;;;2.90;70.30;;;;;;5034059;28;19945;-87
2023/01/11 01:19:49;;;;;;;;;;;3.20;66.20;;;;;;5034002;28;19943;-88
2023/01/11 01:22:15;;;;;;;;;;;3.20;69.70;;;;;;5033603;28;20413;-88
2023/01/11 01:24:40;;;;;;;;;;;3.10;70.10;;;;;;5033944;28;19945;-88
2023/01/11 01:27:06;;;;;;;;;;;3.00;70.60;;;;;;5033851;28;19941;-88
2023/01/11 01:29:31;;;;;;;;;;;2.90;72.00;;;;;;5033889;28;19941;-88
2023/01/11 01:31:57;;;;;;;;;;;2.90;73.30;;;;;;5027279;28;19944;-88
2023/01/11 01:34:22;;;;;;;;;;;2.70;73.30;;;;;;5014039;28;20021;-88
2023/01/11 01:36:48;;;;;;;;;;;2.70;73.60;;;;;;5013536;28;20296;-88
2023/01/11 01:39:14;;;;;;;;;;;2.60;72.70;;;;;;5013930;28;19943;-88
2023/01/11 01:41:39;;;;;;;;;;;2.70;72.80;;;;;;5013864;28;20045;-88
2023/01/11 01:44:25;;;;;;;;;;;2.60;72.90;;;;;;5013903;28;20317;-88
2023/01/11 01:46:50;;;;;;;;;;;2.60;74.10;;;;;;5013774;28;20054;-88
2023/01/11 01:49:16;;;;;;;;;;;2.70;74.90;;;;;;5013789;28;19977;-87
2023/01/11 01:51:45;;;;;;;;;;;2.70;73.80;;;;;;5019295;28;19994;-87
2023/01/11 01:54:13;;;;;;;;;;;2.70;74.90;;;;;;5033354;28;19953;-87
2023/01/11 01:56:42;;;;;;;;;;;2.50;76.70;;;;;;5033343;28;20454;-87
2023/01/11 01:59:11;;;;;;;;;;;2.50;78.10;;;;;;5033380;28;19951;-87
2023/01/11 02:01:46;;;;;;;;;;;2.40;78.20;;;;;;5033306;28;20034;-88
2023/01/11 02:04:20;;;;;;;;;;;2.30;78.30;;;;;;5033300;28;20452;-88
2023/01/11 02:06:46;;;;;;;;;;;2.30;78.70;;;;;;5033235;28;19935;-87
2023/01/11 02:09:21;;;;;;;;;;;2.10;78.50;;;;;;5033240;28;19934;-88
2023/01/11 02:11:48;;;;;;;;;;;2.10;79.00;;;;;;5033188;28;19963;-88
2023/01/11 02:14:15;;;;;;;;;;;2.00;79.80;;;;;;5021494;28;19952;-88
2023/01/11 02:16:40;;;;;;;;;;;2.00;79.90;;;;;;5013280;28;20340;-87
2023/01/11 02:19:08;;;;;;;;;;;1.80;80.30;;;;;;5013391;28;19938;-87
2023/01/11 02:21:49;;;;;;;;;;;1.60;81.20;;;;;;5013292;28;20379;-87
2023/01/11 02:24:17;;;;;;;;;;;1.60;81.70;;;;;;5013338;28;19946;-87
2023/01/11 02:26:45;;;;;;;;;;;1.50;81.70;;;;;;5013328;28;20025;-88
2023/01/11 02:29:23;;;;;;;;;;;1.60;80.90;;;;;;5013355;28;20397;-88
2023/01/11 02:31:57;;;;;;;;;;;1.80;80.10;;;;;;5013495;28;19948;-88
2023/01/11 02:34:43;;;;;;;;;;;2.00;79.20;;;;;;5013174;28;20037;-88
2023/01/11 02:37:12;;;;;;;;;;;1.90;79.40;;;;;;5015359;28;20641;-88
2023/01/11 02:39:46;;;;;;;;;;;2.00;79.40;;;;;;5032869;28;19946;-88
2023/01/11 02:45:13;;;;;;;;;;;2.20;77.50;;;;;;5033188;28;19944;-88
2023/01/11 02:47:45;;;;;;;;;;;2.20;76.50;;;;;;5034767;28;19944;-88
2023/01/11 02:50:17;;;;;;;;;;;2.40;76.30;;;;;;5036809;28;20009;-88
2023/01/11 02:52:51;;;;;;;;;;;2.40;74.80;;;;;;5036719;28;19952;-88
2023/01/11 02:55:20;;;;;;;;;;;2.50;76.20;;;;;;5036609;28;19964;-88
2023/01/11 02:57:46;;;;;;;;;;;2.70;73.90;;;;;;5036681;28;20308;-88
2023/01/11 03:00:13;;;;;;;;;;;2.60;72.90;;;;;;5036608;28;19945;-88
2023/01/11 03:02:38;;;;;;;;;;;2.50;73.30;;;;;;5035877;28;19960;-88
2023/01/11 03:05:10;;;;;;;;;;;2.50;76.40;;;;;;5016775;28;20039;-88
2023/01/11 03:07:51;;;;;;;;;;;2.50;76.50;;;;;;5016764;28;19944;-88
2023/01/11 03:10:23;;;;;;;;;;;2.50;75.50;;;;;;5017162;28;19939;-88
2023/01/11 03:12:53;;;;;;;;;;;2.50;74.80;;;;;;5014035;28;19949;-88
2023/01/11 03:15:37;;;;;;;;;;;2.40;77.10;;;;;;5025068;22;20017;-88
2023/01/11 03:18:18;;;;;;;;;;;2.30;77.10;;;;;;5016546;28;19949;-88
2023/01/11 03:20:47;;;;;;;;;;;2.20;75.60;;;;;;5016568;28;20435;-88
2023/01/11 03:23:19;;;;;;;;;;;2.20;76.40;;;;;;5016451;28;20336;-88
2023/01/11 03:25:47;;;;;;;;;;;2.00;77.20;;;;;;5016435;28;19946;-88
2023/01/11 03:28:23;;;;;;;;;;;2.00;77.60;;;;;;5015935;28;20268;-88
2023/01/11 03:30:55;;;;;;;;;;;1.90;76.80;;;;;;5019952;28;19942;-88
2023/01/11 03:33:28;;;;;;;;;;;2.00;77.30;;;;;;5036107;28;19950;-88
2023/01/11 03:35:59;;;;;;;;;;;2.20;77.80;;;;;;5036057;28;20016;-88
2023/01/11 03:38:25;;;;;;;;;;;2.30;77.90;;;;;;5035943;28;19976;-88
2023/01/11 03:40:53;;;;;;;;;;;2.30;77.90;;;;;;5035939;28;19985;-88
2023/01/11 03:43:19;;;;;;;;;;;2.30;78.20;;;;;;5035785;28;19943;-88
2023/01/11 03:45:52;;;;;;;;;;;2.20;77.70;;;;;;5035816;28;19994;-88
2023/01/11 03:48:23;;;;;;;;;;;2.20;78.80;;;;;;5035828;28;20389;-88
2023/01/11 03:50:51;;;;;;;;;;;2.40;78.60;;;;;;5035724;28;19964;-88
2023/01/11 03:53:18;;;;;;;;;;;2.40;77.80;;;;;;5034314;28;20053;-88
2023/01/11 03:55:47;;;;;;;;;;;2.50;78.00;;;;;;5035531;28;19938;-88
2023/01/11 03:58:12;;;;;;;;;;;2.70;77.00;;;;;;5035274;28;19996;-88
2023/01/11 04:00:38;;;;;;;;;;;2.70;76.40;;;;;;5017555;28;19942;-88
2023/01/11 04:03:04;;;;;;;;;;;2.50;76.70;;;;;;5015652;28;19964;-88
2023/01/11 04:05:31;;;;;;;;;;;2.20;77.20;;;;;;5015700;28;19940;-88
2023/01/11 04:07:57;;;;;;;;;;;2.00;77.90;;;;;;5015663;28;19980;-88
2023/01/11 04:10:22;;;;;;;;;;;1.90;78.20;;;;;;5015617;28;19938;-87
2023/01/11 04:12:48;;;;;;;;;;;1.80;78.60;;;;;;5015535;28;19950;-88
2023/01/11 04:15:14;;;;;;;;;;;1.70;78.80;;;;;;5015377;28;19938;-88
2023/01/11 04:17:40;;;;;;;;;;;1.70;77.90;;;;;;5015474;28;19943;-88
2023/01/11 04:20:07;;;;;;;;;;;1.70;78.50;;;;;;5015388;28;19946;-88
2023/01/11 04:22:33;;;;;;;;;;;1.70;77.20;;;;;;5015225;28;19962;-88
2023/01/11 04:24:58;;;;;;;;;;;1.60;77.70;;;;;;5015318;28;19942;-88
2023/01/11 04:27:24;;;;;;;;;;;1.50;77.70;;;;;;5024531;28;19957;-88
2023/01/11 04:29:50;;;;;;;;;;;1.40;78.50;;;;;;5035095;28;19949;-88
2023/01/11 04:32:15;;;;;;;;;;;1.40;79.20;;;;;;5034962;28;19940;-88
2023/01/11 04:34:41;;;;;;;;;;;1.40;80.60;;;;;;5034961;28;19939;-88
2023/01/11 04:37:06;;;;;;;;;;;1.50;81.10;;;;;;5035178;28;19943;-88
2023/01/11 04:39:32;;;;;;;;;;;1.60;81.10;;;;;;5034834;28;19934;-88
2023/01/11 04:44:42;;;;;;;;;;;1.90;80.70;;;;;;5034805;28;19944;-88
2023/01/11 04:47:07;;;;;;;;;;;2.00;80.10;;;;;;5034749;28;20367;-88
2023/01/11 04:49:33;;;;;;;;;;;2.00;79.90;;;;;;5034922;28;19939;-88
2023/01/11 04:51:58;;;;;;;;;;;2.00;80.00;;;;;;5034713;28;20397;-88
2023/01/11 04:54:24;;;;;;;;;;;2.10;78.90;;;;;;5033228;28;19948;-87
2023/01/11 04:56:49;;;;;;;;;;;2.10;77.90;;;;;;5025898;28;19955;-88
2023/01/11 04:59:15;;;;;;;;;;;1.90;79.00;;;;;;5014719;28;19950;-88
2023/01/11 05:01:40;;;;;;;;;;;1.90;80.20;;;;;;5014529;28;19939;-87
2023/01/11 05:04:06;;;;;;;;;;;1.80;80.10;;;;;;5014643;28;19948;-88
2023/01/11 05:06:32;;;;;;;;;;;1.70;78.60;;;;;;5014550;28;19940;-87
2023/01/11 05:08:57;;;;;;;;;;;1.60;78.80;;;;;;5014493;28;19954;-87
2023/01/11 05:11:23;;;;;;;;;;;1.50;79.90;;;;;;5013438;28;19937;-88
2023/01/11 05:13:48;;;;;;;;;;;1.50;80.90;;;;;;5014450;28;19959;-88
2023/01/11 05:16:18;;;;;;;;;;;1.50;80.90;;;;;;5014262;28;19981;-88
2023/01/11 05:18:47;;;;;;;;;;;1.50;81.50;;;;;;5014347;28;19935;-88
2023/01/11 05:21:14;;;;;;;;;;;1.50;81.50;;;;;;5025654;28;19970;-88
2023/01/11 05:23:40;;;;;;;;;;;1.50;82.60;;;;;;5033946;28;20374;-88
2023/01/11 05:26:07;;;;;;;;;;;1.60;82.80;;;;;;5033325;28;20017;-88
2023/01/11 05:28:33;;;;;;;;;;;1.60;82.00;;;;;;5033682;28;19940;-88
2023/01/11 05:30:59;;;;;;;;;;;1.70;81.80;;;;;;5034140;28;19971;-88
2023/01/11 05:33:24;;;;;;;;;;;1.80;81.70;;;;;;5033942;28;20416;-87
2023/01/11 05:35:55;;;;;;;;;;;1.60;81.10;;;;;;5033846;28;19940;-88
2023/01/11 05:38:20;;;;;;;;;;;1.30;81.80;;;;;;5033779;28;19938;-87
2023/01/11 05:40:52;;;;;;;;;;;1.30;82.80;;;;;;5033741;28;20461;-87
2023/01/11 05:43:17;;;;;;;;;;;1.20;83.20;;;;;;5033639;28;19954;-87
2023/01/11 05:45:43;;;;;;;;;;;1.30;83.10;;;;;;5033923;28;19992;-87
2023/01/11 05:48:08;;;;;;;;;;;1.30;83.50;;;;;;5033570;28;20395;-87
2023/01/11 05:50:34;;;;;;;;;;;1.20;83.90;;;;;;5021549;28;20466;-87
2023/01/11 05:52:59;;;;;;;;;;;1.20;84.80;;;;;;5013058;28;20429;-88
2023/01/11 05:55:25;;;;;;;;;;;1.20;85.60;;;;;;5013223;28;20399;-88
2023/01/11 05:57:50;;;;;;;;;;;1.20;85.00;;;;;;5012730;28;19957;-88
2023/01/11 06:00:16;;;;;;;;;;;1.20;84.90;;;;;;5012548;28;19955;-87
2023/01/11 06:02:42;;;;;;;;;;;1.20;84.70;;;;;;5012135;28;20463;-88
2023/01/11 06:05:07;;;;;;;;;;;1.10;84.80;;;;;;5013454;28;20413;-88
2023/01/11 06:07:33;;;;;;;;;;;1.10;85.20;;;;;;5013470;28;19945;-87
2023/01/11 06:09:58;;;;;;;;;;;1.10;85.00;;;;;;5032720;28;19984;-88
2023/01/11 06:12:24;;;;;;;;;;;1.20;85.10;;;;;;5033282;28;19997;-87
2023/01/11 06:14:49;;;;;;;;;;;1.40;84.70;;;;;;5033181;28;20370;-88
2023/01/11 06:17:15;;;;;;;;;;;1.50;84.10;;;;;;5032874;28;20446;-88
2023/01/11 06:19:40;;;;;;;;;;;1.70;82.30;;;;;;5032835;28;20293;-87
2023/01/11 06:22:06;;;;;;;;;;;1.70;81.00;;;;;;5032654;28;20457;-88
2023/01/11 06:24:32;;;;;;;;;;;1.70;80.40;;;;;;5017762;28;20335;-87
2023/01/11 06:26:57;;;;;;;;;;;1.60;80.70;;;;;;5012990;28;19967;-88
2023/01/11 06:29:23;;;;;;;;;;;1.60;80.40;;;;;;5006558;28;20035;-87
2023/01/11 06:31:48;;;;;;;;;;;1.60;81.10;;;;;;5007360;28;20352;-87
2023/01/11 06:34:14;;;;;;;;;;;1.50;81.50;;;;;;5010008;28;19983;-88
2023/01/11 06:36:39;;;;;;;;;;;1.40;81.70;;;;;;5006139;28;20034;-88
2023/01/11 06:39:05;;;;;;;;;;;1.30;82.20;;;;;;5009427;28;20380;-87
2023/01/11 06:41:30;;;;;;;;;;;1.20;83.40;;;;;;5010518;28;19949;-87
2023/01/11 06:43:56;;;;;;;;;;;1.30;83.60;;;;;;5008966;28;19949;-87
2023/01/11 06:46:21;;;;;;;;;;;1.50;83.20;;;;;;5008823;28;19954;-88
2023/01/11 06:48:47;;;;;;;;;;;1.50;83.30;;;;;;5007533;28;20326;-88
2023/01/11 06:51:13;;;;;;;;;;;1.50;83.20;;;;;;5014267;28;19940;-87
2023/01/11 06:53:40;;;;;;;;;;;1.70;83.10;;;;;;5019592;28;19970;-88
2023/01/11 06:56:06;;;;;;;;;;;1.90;82.60;;;;;;5005572;28;20457;-88
2023/01/11 06:58:31;;;;;;;;;;;1.90;82.30;;;;;;5009046;28;20026;-88
2023/01/11 07:00:57;;;;;;;;;;;1.80;82.60;;;;;;5009635;28;19972;-88
2023/01/11 07:03:23;;;;;;;;;;;1.60;83.20;;;;;;5010953;28;20052;-87
2023/01/11 07:05:49;;;;;;;;;;;1.60;83.20;;;;;;5006699;28;20038;-88
2023/01/11 07:08:14;;;;;;;;;;;1.60;83.00;;;;;;5006198;28;20048;-88
2023/01/11 07:10:41;;;;;;;;;;;1.50;82.90;;;;;;5009251;28;19943;-88
2023/01/11 07:13:06;;;;;;;;;;;1.40;82.80;;;;;;5005963;28;19960;-88
2023/01/11 07:15:32;;;;;;;;;;;1.40;82.50;;;;;;5018860;28;20060;-88
2023/01/11 07:17:58;;;;;;;;;;;1.50;82.80;;;;;;5003851;28;20429;-87
2023/01/11 07:20:24;;;;;;;;;;;1.50;81.80;;;;;;5003315;28;20431;-87
2023/01/11 07:22:50;;;;;;;;;;;1.70;81.40;;;;;;5004412;28;20452;-87
2023/01/11 07:25:16;;;;;;;;;;;1.70;81.50;;;;;;5010238;28;19946;-87
2023/01/11 07:27:42;;;;;;;;;;;1.50;82.30;;;;;;5008606;28;19948;-88
2023/01/11 07:30:07;;;;;;;;;;;1.50;83.00;;;;;;5007190;28;20371;-88
2023/01/11 07:32:34;;;;;;;;;;;1.60;83.40;;;;;;5007971;28;19950;-88
2023/01/11 07:35:00;;;;;;;;;;;1.70;84.10;;;;;;5012403;28;19948;-87
2023/01/11 07:37:25;;;;;;;;;;;1.80;83.90;;;;;;5012287;28;19986;-88
2023/01/11 07:39:51;;;;;;;;;;;2.00;82.80;;;;;;5009304;28;20343;-88
2023/01/11 07:45:00;;;;;;;;;;;2.10;82.30;;;;;;5009683;28;19949;-88
2023/01/11 07:47:26;;;;;;;;;;;2.20;82.20;;;;;;5013704;28;19945;-88
2023/01/11 07:49:52;;;;;;;;;;;2.20;82.50;;;;;;5013392;28;20018;-87
2023/01/11 07:52:17;;;;;;;;;;;2.20;82.70;;;;;;5007564;28;20014;-88
2023/01/11 07:54:43;;;;;;;;;;;2.20;83.40;;;;;;5007608;28;19948;-87
2023/01/11 07:57:09;;;;;;;;;;;2.20;83.20;;;;;;5009802;28;19948;-88
2023/01/11 07:59:34;;;;;;;;;;;2.20;83.70;;;;;;5011077;28;20331;-87
2023/01/11 08:02:00;;;;;;;;;;;2.20;84.40;;;;;;5010516;28;20011;-87
2023/01/11 08:04:25;;;;;;;;;;;2.20;84.50;;;;;;5006671;28;20393;-87
2023/01/11 08:06:51;;;;;;;;;;;2.40;85.00;;;;;;5009699;28;19959;-87
2023/01/11 08:09:16;;;;;;;;;;;2.60;84.70;;;;;;5007993;28;19940;-88
2023/01/11 08:14:38;;;;;;;;;;;2.80;84.40;;;;;;5003744;28;19995;-87
2023/01/11 08:17:04;;;;;;;;;;;2.80;84.30;;;;;;5008293;28;19982;-87
2023/01/11 08:19:29;;;;;;;;;;;2.90;84.20;;;;;;5011397;28;20306;-87
2023/01/11 08:21:55;;;;;;;;;;;3.00;83.40;;;;;;5004889;28;20009;-87
2023/01/11 08:24:20;;;;;;;;;;;3.10;84.10;;;;;;5007669;28;19945;-87
2023/01/11 08:26:46;;;;;;;;;;;3.20;84.90;;;;;;5006693;28;19958;-87
2023/01/11 08:29:11;;;;;;;;;;;3.30;84.90;;;;;;5009596;28;19992;-87
2023/01/11 08:31:37;;;;;;;;;;;3.40;84.60;;;;;;5007352;28;20293;-87
2023/01/11 08:34:03;;;;;;;;;;;3.40;83.50;;;;;;5008855;28;19958;-87
2023/01/11 08:36:30;;;;;;;;;;;3.50;83.10;;;;;;5005614;28;19997;-87
2023/01/11 08:38:56;;;;;;;;;;;3.70;82.30;;;;;;5010760;28;19951;-88
2023/01/11 08:41:22;;;;;;;;;;;3.80;81.40;;;;;;5009647;28;19949;-88
2023/01/11 08:43:48;;;;;;;;;;;4.00;80.70;;;;;;5007093;28;19941;-88
2023/01/11 08:46:14;;;;;;;;;;;4.10;79.40;;;;;;5004809;28;19939;-87
2023/01/11 08:48:40;;;;;;;;;;;4.30;77.30;;;;;;5009084;28;19958;-86
2023/01/11 08:51:05;;;;;;;;;;;4.40;76.50;;;;;;5003761;28;20044;-86
2023/01/11 08:53:31;;;;;;;;;;;4.70;78.00;;;;;;5007820;28;20380;-86
2023/01/11 08:55:56;;;;;;;;;;;4.80;76.10;;;;;;5004369;28;19951;-86
2023/01/11 08:58:22;;;;;;;;;;;4.90;74.60;;;;;;5003354;28;20379;-85
2023/01/11 09:00:47;;;;;;;;;;;5.00;71.40;;;;;;5006756;28;19949;-86
2023/01/11 09:03:13;;;;;;;;;;;5.20;70.70;;;;;;5001579;28;19947;-85
2023/01/11 09:05:39;;;;;;;;;;;5.30;71.20;;;;;;5005985;28;19955;-87
2023/01/11 09:08:06;;;;;;;;;;;5.30;69.20;;;;;;5006989;28;19951;-87
2023/01/11 09:10:31;;;;;;;;;;;5.40;70.10;;;;;;5001837;28;20526;-87
2023/01/11 09:14:28;;;;;;;;;;;5.60;71.20;;;;;;5117471;27;19952;-87
2023/01/11 09:16:54;;;;;;;;;;;5.70;71.40;;;;;;5084776;28;20323;-88
2023/01/11 09:19:20;;;;;;;;;;;5.80;71.10;;;;;;5099062;28;19942;-88
2023/01/11 09:21:45;;;;;;;;;;;6.00;71.50;;;;;;5098426;28;20037;-88
2023/01/11 09:24:11;;;;;;;;;;;6.30;71.40;;;;;;5100330;28;19948;-88
2023/01/11 09:26:37;;;;;;;;;;;6.50;71.20;;;;;;5103169;28;19957;-88
2023/01/11 09:29:03;;;;;;;;;;;6.70;70.90;;;;;;5101948;28;20367;-88
2023/01/11 09:31:29;;;;;;;;;;;6.70;70.90;;;;;;5088974;28;20004;-88
2023/01/11 09:33:54;;;;;;;;;;;6.70;69.90;;;;;;5076125;28;19968;-88
2023/01/11 09:36:20;;;;;;;;;;;6.80;70.60;;;;;;5095066;28;19951;-88
2023/01/11 09:38:51;;;;;;;;;;;6.80;72.20;;;;;;5090749;28;19985;-88
2023/01/11 09:41:22;;;;;;;;;;;6.90;72.50;;;;;;5091018;28;19998;-88
2023/01/11 09:43:51;;;;;;;;;;;7.00;72.10;;;;;;5091457;28;19941;-88
2023/01/11 09:46:17;;;;;;;;;;;7.10;70.10;;;;;;5067343;28;19953;-88
2023/01/11 09:48:43;;;;;;;;;;;7.30;68.50;;;;;;5099975;28;20011;-88
2023/01/11 09:51:14;;;;;;;;;;;7.40;67.70;;;;;;5087621;28;19952;-88
2023/01/11 09:53:44;;;;;;;;;;;7.50;65.50;;;;;;5089329;28;19971;-87
2023/01/11 09:56:12;;;;;;;;;;;7.60;65.00;;;;;;5088093;28;20311;-88
2023/01/11 09:58:58;;;;;;;;;;;7.70;63.00;;;;;;5088463;28;19946;-87
2023/01/11 10:01:34;;;;;;;;;;;7.90;62.90;;;;;;5086267;28;19942;-87
2023/01/11 10:04:05;;;;;;;;;;;8.00;63.60;;;;;;5088128;28;19986;-88
2023/01/11 10:06:33;;;;;;;;;;;8.20;62.60;;;;;;5085403;28;19996;-88
2023/01/11 10:09:09;;;;;;;;;;;8.30;62.40;;;;;;5092259;28;19951;-88
2023/01/11 10:11:54;;;;;;;;;;;8.40;60.90;;;;;;5089401;28;19949;-88
2023/01/11 10:14:38;;;;;;;;;;;8.50;61.00;;;;;;5084627;28;20417;-88
2023/01/11 10:17:21;;;;;;;;;;;8.70;60.50;;;;;;5083869;28;19947;-88
2023/01/11 10:19:52;;;;;;;;;;;8.90;59.50;;;;;;5088272;28;20039;-88
2023/01/11 10:22:22;;;;;;;;;;;9.10;58.30;;;;;;5093724;28;19995;-88
2023/01/11 10:24:56;;;;;;;;;;;9.40;57.10;;;;;;5082594;28;19962;-88
2023/01/11 10:27:29;;;;;;;;;;;9.60;56.10;;;;;;5069797;28;19948;-88
2023/01/11 10:30:12;;;;;;;;;;;9.70;56.80;;;;;;5067777;28;20069;-88
2023/01/11 10:41:05;;;;;;;;;;;9.70;58.10;;;;;;5069049;28;19987;-88
2023/01/11 10:43:34;;;;;;;;;;;9.80;58.90;;;;;;5072984;28;20428;-88
2023/01/11 10:46:00;;;;;;;;;;;9.90;57.60;;;;;;5055068;28;20041;-88
2023/01/11 10:48:38;;;;;;;;;;;10.20;56.30;;;;;;5071327;28;19948;-88
2023/01/11 10:51:10;;;;;;;;;;;10.40;55.00;;;;;;5071216;28;19976;-88
2023/01/11 10:53:39;;;;;;;;;;;10.70;54.10;;;;;;5074311;28;19966;-88
2023/01/11 10:56:11;;;;;;;;;;;11.00;53.80;;;;;;5072744;28;20488;-88
2023/01/11 10:58:37;;;;;;;;;;;11.10;53.10;;;;;;5073194;28;19953;-88
2023/01/11 11:01:19;;;;;;;;;;;11.40;50.60;;;;;;5072105;28;19948;-87
2023/01/11 11:03:51;;;;;;;;;;;11.50;48.80;;;;;;5072885;28;20044;-88
2023/01/11 11:06:17;;;;;;;;;;;11.40;47.30;;;;;;5076724;28;20420;-88
2023/01/11 11:08:51;;;;;;;;;;;11.20;47.30;;;;;;5073541;28;19955;-88
2023/01/11 11:11:17;;;;;;;;;;;11.20;47.00;;;;;;5083104;28;20438;-88
2023/01/11 11:13:50;;;;;;;;;;;11.30;46.10;;;;;;5080173;28;19954;-88
2023/01/11 11:16:16;;;;;;;;;;;11.30;45.80;;;;;;5077136;28;19973;-88
2023/01/11 11:18:42;;;;;;;;;;;11.40;46.70;;;;;;5080813;28;19994;-88
2023/01/11 11:21:15;;;;;;;;;;;11.80;45.50;;;;;;5093924;28;20399;-88
2023/01/11 11:23:41;;;;;;;;;;;12.00;45.90;;;;;;5085958;28;20410;-88
2023/01/11 11:26:08;;;;;;;;;;;12.40;45.00;;;;;;5085305;28;19950;-88
2023/01/11 11:28:33;;;;;;;;;;;12.70;44.90;;;;;;5092108;28;19948;-88
2023/01/11 11:31:01;;;;;;;;;;;12.50;44.30;;;;;;5075440;28;19993;-88
2023/01/11 11:33:32;;;;;;;;;;;12.80;42.60;;;;;;5073571;28;20073;-88
2023/01/11 11:36:00;;;;;;;;;;;12.80;43.00;;;;;;5089758;28;19942;-88
2023/01/11 11:38:30;;;;;;;;;;;12.60;43.70;;;;;;5086953;28;19947;-88
2023/01/11 11:41:11;;;;;;;;;;;12.60;44.40;;;;;;5093573;28;19953;-88
2023/01/11 11:43:38;;;;;;;;;;;12.50;43.70;;;;;;5094631;28;20404;-88
2023/01/11 11:46:12;;;;;;;;;;;12.50;44.10;;;;;;5076791;28;20415;-88
2023/01/11 11:48:38;;;;;;;;;;;12.60;43.10;;;;;;5079409;28;20022;-88
2023/01/11 11:51:05;;;;;;;;;;;12.90;43.10;;;;;;5074464;28;19985;-88
2023/01/11 11:53:34;;;;;;;;;;;13.10;44.10;;;;;;5074641;28;19965;-88
2023/01/11 11:56:10;;;;;;;;;;;13.50;43.60;;;;;;5083545;28;19952;-88
2023/01/11 11:58:38;;;;;;;;;;;13.80;43.10;;;;;;5092780;28;19942;-88
2023/01/11 12:01:07;;;;;;;;;;;13.90;43.80;;;;;;5081094;28;20020;-88
2023/01/11 12:03:32;;;;;;;;;;;14.00;42.60;;;;;;5073646;28;19977;-88
2023/01/11 12:06:00;;;;;;;;;;;13.80;43.40;;;;;;5074384;28;19980;-88
2023/01/11 12:08:26;;;;;;;;;;;13.50;45.80;;;;;;5073413;28;19949;-88
2023/01/11 12:10:54;;;;;;;;;;;13.20;45.10;;;;;;5066210;28;20436;-88
2023/01/11 12:13:27;;;;;;;;;;;13.10;45.00;;;;;;5093848;28;19992;-87
2023/01/11 12:15:56;;;;;;;;;;;12.90;47.20;;;;;;5082942;28;19943;-88
2023/01/11 12:18:26;;;;;;;;;;;12.70;46.80;;;;;;5081115;28;20001;-88
2023/01/11 12:20:52;;;;;;;;;;;13.20;46.50;;;;;;5083162;28;20028;-88
2023/01/11 12:23:20;;;;;;;;;;;13.70;47.90;;;;;;5075604;28;19949;-88
2023/01/11 12:25:58;;;;;;;;;;;14.30;45.30;;;;;;5077988;28;19946;-88
2023/01/11 12:28:27;;;;;;;;;;;14.80;44.30;;;;;;5067380;28;19965;-88
2023/01/11 12:31:11;;;;;;;;;;;15.10;43.70;;;;;;5075821;28;19940;-87
2023/01/11 12:33:45;;;;;;;;;;;15.30;43.20;;;;;;5075676;28;19967;-87
2023/01/11 12:36:28;;;;;;;;;;;14.90;44.90;;;;;;5074937;28;19948;-86
2023/01/11 12:39:05;;;;;;;;;;;14.40;47.40;;;;;;5080771;28;19959;-87
2023/01/11 12:41:42;;;;;;;;;;;13.70;50.10;;;;;;5079578;28;19939;-86
2023/01/11 12:44:21;;;;;;;;;;;13.20;51.60;;;;;;5083688;28;20422;-87
2023/01/11 12:47:07;;;;;;;;;;;13.00;50.10;;;;;;5073320;28;19944;-87
2023/01/11 12:49:42;;;;;;;;;;;13.00;51.20;;;;;;5075885;28;19985;-87
2023/01/11 12:52:08;;;;;;;;;;;13.30;49.90;;;;;;5086352;28;19995;-87
2023/01/11 12:54:39;;;;;;;;;;;13.40;50.20;;;;;;5078606;28;20000;-87
2023/01/11 12:57:06;;;;;;;;;;;13.90;50.20;;;;;;5072006;28;19958;-87
2023/01/11 12:59:34;;;;;;;;;;;14.30;48.50;;;;;;5078929;28;20047;-87
2023/01/11 13:02:06;;;;;;;;;;;14.50;48.40;;;;;;5076078;28;19959;-88
2023/01/11 13:04:31;;;;;;;;;;;14.70;46.40;;;;;;5082439;28;20460;-88
2023/01/11 13:07:00;;;;;;;;;;;15.00;45.80;;;;;;5076002;28;19978;-88
2023/01/11 13:09:33;;;;;;;;;;;15.10;45.50;;;;;;5076497;28;19945;-88
2023/01/11 13:12:17;;;;;;;;;;;14.80;45.30;;;;;;5076108;28;19942;-87
2023/01/11 13:14:51;;;;;;;;;;;14.10;47.00;;;;;;5075736;28;19962;-87
2023/01/11 13:17:17;;;;;;;;;;;13.80;48.10;;;;;;5078527;28;19950;-87
2023/01/11 13:19:47;;;;;;;;;;;13.90;50.20;;;;;;5073413;28;20307;-88
2023/01/11 13:22:14;;;;;;;;;;;13.70;51.30;;;;;;5076973;28;20055;-87
2023/01/11 13:24:41;;;;;;;;;;;13.70;52.70;;;;;;5076530;28;19949;-88
2023/01/11 13:27:11;;;;;;;;;;;14.10;51.60;;;;;;5085254;28;20324;-88
2023/01/11 13:29:39;;;;;;;;;;;14.60;50.60;;;;;;5079617;28;19945;-88
2023/01/11 13:32:06;;;;;;;;;;;14.90;49.90;;;;;;5084240;28;19954;-88
2023/01/11 13:34:32;;;;;;;;;;;15.00;49.30;;;;;;5083983;28;19965;-88
2023/01/11 13:37:05;;;;;;;;;;;15.30;49.00;;;;;;5080356;28;19941;-88
2023/01/11 13:39:30;;;;;;;;;;;15.70;47.90;;;;;;5073870;28;20428;-88
2023/01/11 13:41:58;;;;;;;;;;;16.10;47.20;;;;;;5082541;28;19944;-88
2023/01/11 13:44:27;;;;;;;;;;;16.30;46.90;;;;;;5078336;28;19962;-88
2023/01/11 13:47:01;;;;;;;;;;;16.40;47.00;;;;;;5073279;28;20030;-88
2023/01/11 13:49:36;;;;;;;;;;;16.30;46.60;;;;;;5077037;28;19940;-88
2023/01/11 13:52:09;;;;;;;;;;;15.90;47.60;;;;;;5074086;28;19952;-87
2023/01/11 13:54:43;;;;;;;;;;;15.70;48.20;;;;;;5079226;28;19986;-87
2023/01/11 13:57:27;;;;;;;;;;;15.60;49.80;;;;;;5083915;28;19954;-88
2023/01/11 13:59:56;;;;;;;;;;;15.60;49.30;;;;;;5075812;28;20028;-88
2023/01/11 14:02:45;;;;;;;;;;;15.60;49.00;;;;;;5079878;28;20050;-88
2023/01/11 14:05:20;;;;;;;;;;;15.80;48.80;;;;;;5069432;28;19948;-88
2023/01/11 14:07:48;;;;;;;;;;;15.30;50.00;;;;;;5080329;28;19942;-88
2023/01/11 14:10:22;;;;;;;;;;;15.00;51.30;;;;;;5077227;28;19948;-88
2023/01/11 14:12:57;;;;;;;;;;;14.30;52.80;;;;;;5076029;28;19978;-88
2023/01/11 14:15:25;;;;;;;;;;;13.60;54.80;;;;;;5081612;28;19955;-88
2023/01/11 14:17:56;;;;;;;;;;;13.40;55.50;;;;;;5081454;28;20005;-89
2023/01/11 14:20:28;;;;;;;;;;;13.30;56.20;;;;;;5057501;28;20031;-88
2023/01/11 14:23:14;;;;;;;;;;;13.00;57.60;;;;;;5072739;28;20427;-88
2023/01/11 14:25:43;;;;;;;;;;;12.90;58.40;;;;;;5074036;28;19962;-88
2023/01/11 14:28:25;;;;;;;;;;;12.90;58.80;;;;;;5073488;28;19950;-88
2023/01/11 14:31:09;;;;;;;;;;;12.90;59.10;;;;;;5072270;28;19993;-88
2023/01/11 14:33:44;;;;;;;;;;;12.80;59.80;;;;;;5080650;28;20044;-88
2023/01/11 14:36:09;;;;;;;;;;;12.60;60.40;;;;;;5071779;28;19940;-88
2023/01/11 14:38:44;;;;;;;;;;;12.40;61.20;;;;;;5082500;28;19945;-88
2023/01/11 14:41:15;;;;;;;;;;;12.40;61.40;;;;;;5082007;28;19972;-88
2023/01/11 14:43:47;;;;;;;;;;;12.40;61.90;;;;;;5084246;28;20279;-88
2023/01/11 14:46:35;;;;;;;;;;;12.20;62.30;;;;;;5087802;28;19987;-88
2023/01/11 14:49:10;;;;;;;;;;;12.20;63.10;;;;;;5069783;28;20347;-88
2023/01/11 14:51:48;;;;;;;;;;;12.30;62.90;;;;;;5079284;28;19949;-88
2023/01/11 14:54:18;;;;;;;;;;;12.30;62.40;;;;;;5082885;28;19961;-88
2023/01/11 14:56:44;;;;;;;;;;;12.30;62.10;;;;;;5064841;28;19947;-88
2023/01/11 14:59:23;;;;;;;;;;;12.30;62.00;;;;;;5079047;28;20391;-88
2023/01/11 15:02:03;;;;;;;;;;;12.30;61.60;;;;;;5080308;28;19943;-88